New Philadelphia, Ohio
Current Conditions -  °F | °C
As of 6:09 AM on Tuesday 21 Oct 2014 (Local Time) from KPHD Reporting Station
Haze Haze  
Wind Chill: 52°   Ceiling: 3600
Heat Index: 52°   Visibility: 4mi
Dew Point: 50°   Wind: 0mph
Humidity: 93%   Direction: NA
Pressure: 29.86"   Gusts: NA
Location:  40.49°N, 81.45°W
Report Text: KPHD 211009Z AUTO 00000KT 4SM BR SCT007 OVC036 11/10 A2986 RMK AO2 T01110100
Loading
Personal Weather Stations






























Interactive Weather Map
Tropical Storm Tracking
New forecast layout! Learn more

10-Day Weather Forecast

Advertisements
Track Severe Weather on mobile